sensor_id;sensor_type;location;lat;lon;timestamp;P1;durP1;ratioP1;P2;durP2;ratioP2
27333;SDS011;14817;57.104;-2.094;2024-03-23T00:56:15;4.82;;;1.67;;
27333;SDS011;14817;57.104;-2.094;2024-03-23T00:58:41;8.10;;;1.30;;
27333;SDS011;14817;57.104;-2.094;2024-03-23T01:01:07;3.78;;;1.17;;
27333;SDS011;14817;57.104;-2.094;2024-03-23T01:03:33;5.93;;;1.27;;
27333;SDS011;14817;57.104;-2.094;2024-03-23T01:05:59;4.05;;;0.88;;
27333;SDS011;14817;57.104;-2.094;2024-03-23T01:08:26;5.78;;;1.30;;
27333;SDS011;14817;57.104;-2.094;2024-03-23T01:10:58;2.53;;;0.60;;
27333;SDS011;14817;57.104;-2.094;2024-03-23T01:13:25;6.45;;;1.10;;
27333;SDS011;14817;57.104;-2.094;2024-03-23T01:15:52;5.85;;;1.00;;
27333;SDS011;14817;57.104;-2.094;2024-03-23T01:18:18;6.15;;;1.52;;
27333;SDS011;14817;57.104;-2.094;2024-03-23T01:20:45;5.28;;;0.82;;
27333;SDS011;14817;57.104;-2.094;2024-03-23T01:23:11;2.75;;;0.93;;
27333;SDS011;14817;57.104;-2.094;2024-03-23T01:25:37;5.55;;;1.40;;
27333;SDS011;14817;57.104;-2.094;2024-03-23T01:28:04;4.75;;;1.15;;
27333;SDS011;14817;57.104;-2.094;2024-03-23T01:30:32;5.65;;;1.13;;
27333;SDS011;14817;57.104;-2.094;2024-03-23T01:33:01;4.57;;;1.75;;
27333;SDS011;14817;57.104;-2.094;2024-03-23T01:35:28;6.22;;;1.10;;
27333;SDS011;14817;57.104;-2.094;2024-03-23T01:37:54;6.30;;;1.17;;
27333;SDS011;14817;57.104;-2.094;2024-03-23T01:40:20;5.75;;;1.58;;
27333;SDS011;14817;57.104;-2.094;2024-03-23T01:45:41;3.45;;;0.88;;
27333;SDS011;14817;57.104;-2.094;2024-03-23T01:48:07;5.13;;;1.40;;
27333;SDS011;14817;57.104;-2.094;2024-03-23T01:50:34;14.55;;;1.20;;
27333;SDS011;14817;57.104;-2.094;2024-03-23T01:53:03;6.70;;;1.67;;
27333;SDS011;14817;57.104;-2.094;2024-03-23T01:55:34;6.93;;;1.80;;
27333;SDS011;14817;57.104;-2.094;2024-03-23T01:58:04;6.68;;;0.85;;
27333;SDS011;14817;57.104;-2.094;2024-03-23T02:00:30;5.47;;;1.10;;
27333;SDS011;14817;57.104;-2.094;2024-03-23T02:02:56;6.07;;;2.03;;
27333;SDS011;14817;57.104;-2.094;2024-03-23T02:05:22;5.70;;;1.40;;
27333;SDS011;14817;57.104;-2.094;2024-03-23T02:07:47;7.97;;;1.10;;
27333;SDS011;14817;57.104;-2.094;2024-03-23T02:10:13;6.57;;;1.25;;
27333;SDS011;14817;57.104;-2.094;2024-03-23T02:12:40;5.28;;;0.90;;
27333;SDS011;14817;57.104;-2.094;2024-03-23T02:15:06;6.03;;;1.10;;
27333;SDS011;14817;57.104;-2.094;2024-03-23T02:17:34;5.53;;;0.80;;
27333;SDS011;14817;57.104;-2.094;2024-03-23T02:20:01;5.65;;;1.25;;
27333;SDS011;14817;57.104;-2.094;2024-03-23T02:22:37;10.13;;;1.65;;
27333;SDS011;14817;57.104;-2.094;2024-03-23T02:25:04;9.38;;;1.83;;
27333;SDS011;14817;57.104;-2.094;2024-03-23T02:27:31;7.50;;;1.38;;
27333;SDS011;14817;57.104;-2.094;2024-03-23T02:29:57;5.63;;;1.33;;
27333;SDS011;14817;57.104;-2.094;2024-03-23T02:32:23;7.47;;;1.83;;
27333;SDS011;14817;57.104;-2.094;2024-03-23T02:34:49;4.80;;;1.13;;
27333;SDS011;14817;57.104;-2.094;2024-03-23T02:37:14;5.57;;;1.10;;
27333;SDS011;14817;57.104;-2.094;2024-03-23T02:39:40;7.10;;;1.20;;
27333;SDS011;14817;57.104;-2.094;2024-03-23T02:42:06;6.97;;;1.13;;
27333;SDS011;14817;57.104;-2.094;2024-03-23T02:44:32;3.28;;;0.88;;
27333;SDS011;14817;57.104;-2.094;2024-03-23T02:46:58;7.80;;;1.48;;
27333;SDS011;14817;57.104;-2.094;2024-03-23T02:49:24;4.78;;;1.13;;
27333;SDS011;14817;57.104;-2.094;2024-03-23T02:51:50;5.38;;;1.55;;
27333;SDS011;14817;57.104;-2.094;2024-03-23T02:54:16;9.23;;;1.38;;
27333;SDS011;14817;57.104;-2.094;2024-03-23T02:56:42;6.10;;;1.00;;
27333;SDS011;14817;57.104;-2.094;2024-03-23T02:59:08;6.47;;;1.52;;
27333;SDS011;14817;57.104;-2.094;2024-03-23T03:01:34;8.20;;;1.85;;
27333;SDS011;14817;57.104;-2.094;2024-03-23T03:04:00;7.95;;;1.20;;
27333;SDS011;14817;57.104;-2.094;2024-03-23T03:06:26;4.15;;;0.80;;
27333;SDS011;14817;57.104;-2.094;2024-03-23T03:08:52;4.10;;;0.55;;
27333;SDS011;14817;57.104;-2.094;2024-03-23T03:11:18;5.60;;;1.30;;
27333;SDS011;14817;57.104;-2.094;2024-03-23T03:13:44;3.42;;;1.00;;
27333;SDS011;14817;57.104;-2.094;2024-03-23T03:16:10;3.08;;;0.75;;
27333;SDS011;14817;57.104;-2.094;2024-03-23T03:18:36;5.35;;;0.93;;
27333;SDS011;14817;57.104;-2.094;2024-03-23T03:21:03;3.15;;;0.80;;
27333;SDS011;14817;57.104;-2.094;2024-03-23T03:23:31;3.75;;;0.95;;
27333;SDS011;14817;57.104;-2.094;2024-03-23T03:25:57;7.00;;;1.10;;
27333;SDS011;14817;57.104;-2.094;2024-03-23T03:28:23;4.30;;;0.60;;
27333;SDS011;14817;57.104;-2.094;2024-03-23T03:30:49;2.72;;;0.50;;
27333;SDS011;14817;57.104;-2.094;2024-03-23T03:33:15;4.35;;;0.75;;
27333;SDS011;14817;57.104;-2.094;2024-03-23T03:35:41;4.80;;;0.70;;
27333;SDS011;14817;57.104;-2.094;2024-03-23T03:38:07;1.23;;;0.40;;
27333;SDS011;14817;57.104;-2.094;2024-03-23T03:40:32;3.75;;;1.00;;
27333;SDS011;14817;57.104;-2.094;2024-03-23T03:42:58;2.58;;;0.55;;
27333;SDS011;14817;57.104;-2.094;2024-03-23T03:45:24;3.50;;;0.45;;
27333;SDS011;14817;57.104;-2.094;2024-03-23T03:47:50;1.38;;;0.40;;
27333;SDS011;14817;57.104;-2.094;2024-03-23T03:50:15;2.67;;;0.63;;
27333;SDS011;14817;57.104;-2.094;2024-03-23T03:52:41;4.60;;;0.73;;
27333;SDS011;14817;57.104;-2.094;2024-03-23T03:55:12;3.75;;;0.70;;
27333;SDS011;14817;57.104;-2.094;2024-03-23T03:57:39;3.42;;;0.50;;
27333;SDS011;14817;57.104;-2.094;2024-03-23T04:00:05;4.80;;;0.40;;
27333;SDS011;14817;57.104;-2.094;2024-03-23T04:02:31;0.75;;;0.30;;
27333;SDS011;14817;57.104;-2.094;2024-03-23T04:04:57;2.25;;;0.65;;
27333;SDS011;14817;57.104;-2.094;2024-03-23T04:07:23;2.97;;;0.50;;
27333;SDS011;14817;57.104;-2.094;2024-03-23T04:09:49;3.88;;;0.90;;
27333;SDS011;14817;57.104;-2.094;2024-03-23T04:12:15;2.13;;;0.90;;
27333;SDS011;14817;57.104;-2.094;2024-03-23T04:14:41;4.65;;;0.80;;
27333;SDS011;14817;57.104;-2.094;2024-03-23T04:17:07;2.30;;;0.60;;
27333;SDS011;14817;57.104;-2.094;2024-03-23T04:19:33;3.60;;;1.13;;
27333;SDS011;14817;57.104;-2.094;2024-03-23T04:21:58;4.40;;;0.70;;
27333;SDS011;14817;57.104;-2.094;2024-03-23T04:24:24;4.05;;;0.60;;
27333;SDS011;14817;57.104;-2.094;2024-03-23T04:26:52;2.30;;;0.75;;
27333;SDS011;14817;57.104;-2.094;2024-03-23T04:29:17;5.72;;;0.52;;
27333;SDS011;14817;57.104;-2.094;2024-03-23T04:31:43;3.33;;;0.80;;
27333;SDS011;14817;57.104;-2.094;2024-03-23T04:34:09;3.78;;;0.70;;
27333;SDS011;14817;57.104;-2.094;2024-03-23T04:36:35;4.53;;;1.02;;
27333;SDS011;14817;57.104;-2.094;2024-03-23T04:39:01;4.75;;;0.65;;
27333;SDS011;14817;57.104;-2.094;2024-03-23T04:41:28;2.78;;;0.40;;
27333;SDS011;14817;57.104;-2.094;2024-03-23T04:43:53;1.95;;;0.60;;
27333;SDS011;14817;57.104;-2.094;2024-03-23T04:46:19;3.60;;;0.73;;
27333;SDS011;14817;57.104;-2.094;2024-03-23T04:48:46;2.47;;;0.45;;
27333;SDS011;14817;57.104;-2.094;2024-03-23T04:51:21;5.70;;;0.80;;
27333;SDS011;14817;57.104;-2.094;2024-03-23T04:53:50;3.42;;;0.80;;
27333;SDS011;14817;57.104;-2.094;2024-03-23T04:56:16;4.70;;;0.90;;
27333;SDS011;14817;57.104;-2.094;2024-03-23T04:58:43;3.42;;;0.60;;
27333;SDS011;14817;57.104;-2.094;2024-03-23T05:01:09;3.05;;;0.70;;
27333;SDS011;14817;57.104;-2.094;2024-03-23T05:03:39;3.17;;;0.90;;
27333;SDS011;14817;57.104;-2.094;2024-03-23T05:06:05;7.78;;;0.98;;
27333;SDS011;14817;57.104;-2.094;2024-03-23T05:08:32;2.08;;;0.65;;
27333;SDS011;14817;57.104;-2.094;2024-03-23T05:10:58;4.47;;;1.05;;
27333;SDS011;14817;57.104;-2.094;2024-03-23T05:13:24;3.05;;;0.57;;
27333;SDS011;14817;57.104;-2.094;2024-03-23T05:15:53;3.95;;;0.60;;
27333;SDS011;14817;57.104;-2.094;2024-03-23T05:18:19;3.33;;;0.57;;
27333;SDS011;14817;57.104;-2.094;2024-03-23T05:20:46;2.17;;;0.65;;
27333;SDS011;14817;57.104;-2.094;2024-03-23T05:23:11;3.15;;;0.60;;
27333;SDS011;14817;57.104;-2.094;2024-03-23T05:25:37;2.35;;;0.82;;
27333;SDS011;14817;57.104;-2.094;2024-03-23T05:28:03;8.32;;;1.45;;
27333;SDS011;14817;57.104;-2.094;2024-03-23T05:30:29;2.72;;;0.50;;
27333;SDS011;14817;57.104;-2.094;2024-03-23T05:32:55;3.30;;;0.30;;
27333;SDS011;14817;57.104;-2.094;2024-03-23T05:35:21;2.88;;;0.60;;
27333;SDS011;14817;57.104;-2.094;2024-03-23T05:37:47;2.42;;;0.55;;
27333;SDS011;14817;57.104;-2.094;2024-03-23T05:40:13;1.98;;;0.82;;
27333;SDS011;14817;57.104;-2.094;2024-03-23T05:42:40;3.08;;;0.55;;
27333;SDS011;14817;57.104;-2.094;2024-03-23T05:45:07;5.28;;;0.70;;
27333;SDS011;14817;57.104;-2.094;2024-03-23T05:47:33;2.28;;;0.38;;
27333;SDS011;14817;57.104;-2.094;2024-03-23T05:49:59;2.60;;;0.65;;
27333;SDS011;14817;57.104;-2.094;2024-03-23T05:52:25;3.90;;;0.57;;
27333;SDS011;14817;57.104;-2.094;2024-03-23T05:54:52;3.47;;;0.65;;
27333;SDS011;14817;57.104;-2.094;2024-03-23T05:57:18;2.03;;;0.55;;
27333;SDS011;14817;57.104;-2.094;2024-03-23T05:59:44;2.58;;;0.52;;
27333;SDS011;14817;57.104;-2.094;2024-03-23T06:02:10;4.40;;;0.50;;
27333;SDS011;14817;57.104;-2.094;2024-03-23T06:04:37;3.70;;;0.73;;
27333;SDS011;14817;57.104;-2.094;2024-03-23T06:07:03;4.18;;;0.68;;
27333;SDS011;14817;57.104;-2.094;2024-03-23T06:09:31;2.25;;;0.60;;
27333;SDS011;14817;57.104;-2.094;2024-03-23T06:11:57;2.72;;;1.13;;
27333;SDS011;14817;57.104;-2.094;2024-03-23T06:14:23;1.60;;;0.50;;
27333;SDS011;14817;57.104;-2.094;2024-03-23T06:16:49;2.25;;;0.68;;
27333;SDS011;14817;57.104;-2.094;2024-03-23T06:19:15;6.65;;;1.00;;
27333;SDS011;14817;57.104;-2.094;2024-03-23T06:21:44;2.28;;;0.68;;
27333;SDS011;14817;57.104;-2.094;2024-03-23T06:24:11;3.13;;;0.70;;
27333;SDS011;14817;57.104;-2.094;2024-03-23T06:26:37;2.72;;;0.60;;
27333;SDS011;14817;57.104;-2.094;2024-03-23T06:29:03;5.57;;;1.23;;
27333;SDS011;14817;57.104;-2.094;2024-03-23T06:31:30;5.35;;;1.17;;
27333;SDS011;14817;57.104;-2.094;2024-03-23T06:33:57;3.10;;;0.70;;
27333;SDS011;14817;57.104;-2.094;2024-03-23T06:36:22;4.05;;;0.70;;
27333;SDS011;14817;57.104;-2.094;2024-03-23T06:38:48;2.58;;;0.70;;
27333;SDS011;14817;57.104;-2.094;2024-03-23T06:41:14;1.73;;;0.73;;
27333;SDS011;14817;57.104;-2.094;2024-03-23T06:43:40;2.00;;;0.60;;
27333;SDS011;14817;57.104;-2.094;2024-03-23T06:46:06;1.05;;;0.30;;
27333;SDS011;14817;57.104;-2.094;2024-03-23T06:48:32;3.50;;;0.75;;
27333;SDS011;14817;57.104;-2.094;2024-03-23T06:50:58;1.65;;;0.43;;
27333;SDS011;14817;57.104;-2.094;2024-03-23T06:53:24;2.72;;;0.70;;
27333;SDS011;14817;57.104;-2.094;2024-03-23T06:55:51;1.80;;;0.60;;
27333;SDS011;14817;57.104;-2.094;2024-03-23T06:58:21;4.82;;;0.93;;
27333;SDS011;14817;57.104;-2.094;2024-03-23T07:00:48;4.55;;;0.57;;
27333;SDS011;14817;57.104;-2.094;2024-03-23T07:03:14;2.28;;;0.30;;
27333;SDS011;14817;57.104;-2.094;2024-03-23T07:05:40;1.73;;;0.40;;
27333;SDS011;14817;57.104;-2.094;2024-03-23T07:08:07;3.95;;;0.60;;
27333;SDS011;14817;57.104;-2.094;2024-03-23T07:10:33;5.22;;;0.45;;
27333;SDS011;14817;57.104;-2.094;2024-03-23T07:12:59;2.70;;;0.95;;
27333;SDS011;14817;57.104;-2.094;2024-03-23T07:15:25;1.92;;;0.40;;
27333;SDS011;14817;57.104;-2.094;2024-03-23T07:17:50;1.83;;;0.55;;
27333;SDS011;14817;57.104;-2.094;2024-03-23T07:20:16;0.40;;;0.30;;
27333;SDS011;14817;57.104;-2.094;2024-03-23T07:22:42;1.55;;;0.38;;
27333;SDS011;14817;57.104;-2.094;2024-03-23T07:25:10;3.42;;;0.45;;
27333;SDS011;14817;57.104;-2.094;2024-03-23T07:27:36;0.93;;;0.35;;
27333;SDS011;14817;57.104;-2.094;2024-03-23T07:30:02;2.70;;;0.50;;
27333;SDS011;14817;57.104;-2.094;2024-03-23T07:32:28;1.63;;;0.40;;
27333;SDS011;14817;57.104;-2.094;2024-03-23T07:34:54;2.75;;;0.60;;
27333;SDS011;14817;57.104;-2.094;2024-03-23T07:37:20;1.60;;;0.38;;
27333;SDS011;14817;57.104;-2.094;2024-03-23T07:39:45;0.57;;;0.22;;
27333;SDS011;14817;57.104;-2.094;2024-03-23T07:42:11;1.17;;;0.35;;
27333;SDS011;14817;57.104;-2.094;2024-03-23T07:44:37;2.70;;;0.57;;
27333;SDS011;14817;57.104;-2.094;2024-03-23T07:47:03;0.70;;;0.20;;
27333;SDS011;14817;57.104;-2.094;2024-03-23T07:49:29;1.02;;;0.35;;
27333;SDS011;14817;57.104;-2.094;2024-03-23T07:51:55;0.63;;;0.30;;
27333;SDS011;14817;57.104;-2.094;2024-03-23T07:54:21;0.40;;;0.40;;
27333;SDS011;14817;57.104;-2.094;2024-03-23T07:56:47;0.85;;;0.40;;
27333;SDS011;14817;57.104;-2.094;2024-03-23T07:59:12;0.65;;;0.25;;
27333;SDS011;14817;57.104;-2.094;2024-03-23T08:01:38;1.23;;;0.32;;
27333;SDS011;14817;57.104;-2.094;2024-03-23T08:04:05;1.20;;;0.70;;
27333;SDS011;14817;57.104;-2.094;2024-03-23T08:06:31;1.15;;;0.55;;
27333;SDS011;14817;57.104;-2.094;2024-03-23T08:08:57;1.83;;;0.43;;
27333;SDS011;14817;57.104;-2.094;2024-03-23T08:11:27;1.23;;;0.30;;
27333;SDS011;14817;57.104;-2.094;2024-03-23T08:13:56;2.92;;;0.40;;
27333;SDS011;14817;57.104;-2.094;2024-03-23T08:16:23;2.17;;;0.70;;
27333;SDS011;14817;57.104;-2.094;2024-03-23T08:18:52;1.95;;;0.70;;
27333;SDS011;14817;57.104;-2.094;2024-03-23T08:21:18;0.57;;;0.40;;
27333;SDS011;14817;57.104;-2.094;2024-03-23T08:23:44;1.23;;;0.60;;
27333;SDS011;14817;57.104;-2.094;2024-03-23T08:26:11;0.65;;;0.45;;
27333;SDS011;14817;57.104;-2.094;2024-03-23T08:28:38;0.90;;;0.40;;
27333;SDS011;14817;57.104;-2.094;2024-03-23T08:31:06;0.93;;;0.30;;
27333;SDS011;14817;57.104;-2.094;2024-03-23T08:33:33;1.05;;;0.35;;
27333;SDS011;14817;57.104;-2.094;2024-03-23T08:36:03;0.43;;;0.30;;
27333;SDS011;14817;57.104;-2.094;2024-03-23T08:38:30;0.82;;;0.20;;
27333;SDS011;14817;57.104;-2.094;2024-03-23T08:40:57;1.05;;;0.30;;
27333;SDS011;14817;57.104;-2.094;2024-03-23T08:43:28;0.30;;;0.20;;
27333;SDS011;14817;57.104;-2.094;2024-03-23T08:46:04;1.60;;;0.52;;
27333;SDS011;14817;57.104;-2.094;2024-03-23T08:48:37;2.25;;;0.38;;
27333;SDS011;14817;57.104;-2.094;2024-03-23T08:51:05;1.23;;;0.47;;
27333;SDS011;14817;57.104;-2.094;2024-03-23T08:53:32;0.70;;;0.50;;
27333;SDS011;14817;57.104;-2.094;2024-03-23T08:55:58;2.13;;;0.70;;
27333;SDS011;14817;57.104;-2.094;2024-03-23T08:58:25;2.55;;;1.00;;
27333;SDS011;14817;57.104;-2.094;2024-03-23T09:00:52;2.67;;;0.90;;
27333;SDS011;14817;57.104;-2.094;2024-03-23T09:03:22;1.75;;;1.00;;
27333;SDS011;14817;57.104;-2.094;2024-03-23T09:05:48;5.30;;;0.80;;
27333;SDS011;14817;57.104;-2.094;2024-03-23T09:08:14;2.55;;;1.00;;
27333;SDS011;14817;57.104;-2.094;2024-03-23T09:10:41;2.00;;;0.70;;
27333;SDS011;14817;57.104;-2.094;2024-03-23T09:13:08;2.28;;;0.70;;
27333;SDS011;14817;57.104;-2.094;2024-03-23T09:15:34;1.67;;;0.60;;
27333;SDS011;14817;57.104;-2.094;2024-03-23T09:18:01;2.58;;;0.95;;
27333;SDS011;14817;57.104;-2.094;2024-03-23T09:20:28;1.85;;;0.90;;
27333;SDS011;14817;57.104;-2.094;2024-03-23T09:22:53;2.38;;;0.80;;
27333;SDS011;14817;57.104;-2.094;2024-03-23T09:25:19;4.38;;;0.80;;
27333;SDS011;14817;57.104;-2.094;2024-03-23T09:27:46;1.65;;;0.73;;
27333;SDS011;14817;57.104;-2.094;2024-03-23T09:30:12;1.95;;;0.80;;
27333;SDS011;14817;57.104;-2.094;2024-03-23T09:32:39;2.50;;;0.80;;
27333;SDS011;14817;57.104;-2.094;2024-03-23T09:35:07;1.85;;;0.70;;
27333;SDS011;14817;57.104;-2.094;2024-03-23T09:37:33;1.08;;;0.70;;
27333;SDS011;14817;57.104;-2.094;2024-03-23T09:39:58;1.10;;;0.50;;
27333;SDS011;14817;57.104;-2.094;2024-03-23T09:42:24;2.05;;;0.70;;
27333;SDS011;14817;57.104;-2.094;2024-03-23T09:44:51;0.95;;;0.60;;
27333;SDS011;14817;57.104;-2.094;2024-03-23T09:47:17;1.20;;;0.40;;
27333;SDS011;14817;57.104;-2.094;2024-03-23T09:49:43;2.47;;;0.50;;
27333;SDS011;14817;57.104;-2.094;2024-03-23T09:52:10;1.77;;;0.75;;
27333;SDS011;14817;57.104;-2.094;2024-03-23T09:54:36;1.63;;;0.70;;
27333;SDS011;14817;57.104;-2.094;2024-03-23T09:57:02;1.08;;;0.60;;
27333;SDS011;14817;57.104;-2.094;2024-03-23T09:59:29;0.82;;;0.60;;
27333;SDS011;14817;57.104;-2.094;2024-03-23T10:01:55;1.00;;;0.38;;
27333;SDS011;14817;57.104;-2.094;2024-03-23T10:04:41;1.15;;;0.40;;
27333;SDS011;14817;57.104;-2.094;2024-03-23T10:07:11;1.83;;;0.60;;
27333;SDS011;14817;57.104;-2.094;2024-03-23T10:09:37;1.65;;;0.73;;
27333;SDS011;14817;57.104;-2.094;2024-03-23T10:12:07;1.58;;;0.55;;
27333;SDS011;14817;57.104;-2.094;2024-03-23T10:14:42;2.88;;;0.95;;
27333;SDS011;14817;57.104;-2.094;2024-03-23T10:19:44;2.00;;;0.63;;
27333;SDS011;14817;57.104;-2.094;2024-03-23T10:22:19;1.02;;;0.43;;
27333;SDS011;14817;57.104;-2.094;2024-03-23T10:24:46;1.85;;;0.40;;
27333;SDS011;14817;57.104;-2.094;2024-03-23T10:27:15;1.30;;;0.45;;
27333;SDS011;14817;57.104;-2.094;2024-03-23T10:29:46;2.35;;;0.50;;
27333;SDS011;14817;57.104;-2.094;2024-03-23T10:32:13;1.58;;;0.40;;
27333;SDS011;14817;57.104;-2.094;2024-03-23T10:34:40;1.55;;;0.30;;
27333;SDS011;14817;57.104;-2.094;2024-03-23T10:37:07;2.53;;;0.40;;
27333;SDS011;14817;57.104;-2.094;2024-03-23T10:39:33;1.50;;;0.50;;
27333;SDS011;14817;57.104;-2.094;2024-03-23T10:42:02;1.67;;;0.70;;
27333;SDS011;14817;57.104;-2.094;2024-03-23T10:44:29;2.63;;;0.70;;
27333;SDS011;14817;57.104;-2.094;2024-03-23T10:46:59;4.00;;;0.80;;
27333;SDS011;14817;57.104;-2.094;2024-03-23T10:49:27;1.35;;;0.60;;
27333;SDS011;14817;57.104;-2.094;2024-03-23T10:52:02;3.47;;;0.65;;
27333;SDS011;14817;57.104;-2.094;2024-03-23T10:54:32;2.60;;;0.70;;
27333;SDS011;14817;57.104;-2.094;2024-03-23T10:57:03;4.03;;;0.90;;
27333;SDS011;14817;57.104;-2.094;2024-03-23T10:59:33;3.28;;;0.80;;
27333;SDS011;14817;57.104;-2.094;2024-03-23T11:02:02;5.45;;;0.90;;
27333;SDS011;14817;57.104;-2.094;2024-03-23T11:04:38;4.10;;;0.90;;
27333;SDS011;14817;57.104;-2.094;2024-03-23T11:09:51;2.33;;;0.80;;
27333;SDS011;14817;57.104;-2.094;2024-03-23T11:14:48;2.80;;;0.65;;
27333;SDS011;14817;57.104;-2.094;2024-03-23T11:17:22;3.90;;;1.13;;
27333;SDS011;14817;57.104;-2.094;2024-03-23T11:19:53;7.07;;;0.80;;
27333;SDS011;14817;57.104;-2.094;2024-03-23T11:25:19;3.40;;;0.90;;
27333;SDS011;14817;57.104;-2.094;2024-03-23T11:27:46;1.48;;;0.60;;
27333;SDS011;14817;57.104;-2.094;2024-03-23T11:30:14;5.28;;;0.98;;
27333;SDS011;14817;57.104;-2.094;2024-03-23T11:33:08;4.68;;;1.00;;
27333;SDS011;14817;57.104;-2.094;2024-03-23T11:35:34;3.67;;;1.15;;
27333;SDS011;14817;57.104;-2.094;2024-03-23T11:38:06;2.83;;;1.10;;
27333;SDS011;14817;57.104;-2.094;2024-03-23T11:40:45;4.45;;;1.15;;
27333;SDS011;14817;57.104;-2.094;2024-03-23T11:43:13;10.80;;;1.88;;
27333;SDS011;14817;57.104;-2.094;2024-03-23T11:45:42;9.18;;;1.33;;
27333;SDS011;14817;57.104;-2.094;2024-03-23T11:50:40;11.63;;;2.00;;
27333;SDS011;14817;57.104;-2.094;2024-03-23T11:53:17;5.53;;;1.27;;
27333;SDS011;14817;57.104;-2.094;2024-03-23T11:58:14;6.68;;;1.30;;
27333;SDS011;14817;57.104;-2.094;2024-03-23T12:00:40;8.02;;;1.63;;
27333;SDS011;14817;57.104;-2.094;2024-03-23T12:03:07;7.35;;;1.65;;
27333;SDS011;14817;57.104;-2.094;2024-03-23T12:05:33;6.97;;;1.10;;
27333;SDS011;14817;57.104;-2.094;2024-03-23T12:08:15;5.82;;;1.40;;
27333;SDS011;14817;57.104;-2.094;2024-03-23T12:10:43;3.53;;;1.00;;
27333;SDS011;14817;57.104;-2.094;2024-03-23T12:13:10;4.60;;;1.50;;
27333;SDS011;14817;57.104;-2.094;2024-03-23T12:15:36;8.07;;;1.23;;
27333;SDS011;14817;57.104;-2.094;2024-03-23T12:18:05;6.57;;;1.40;;
27333;SDS011;14817;57.104;-2.094;2024-03-23T12:20:36;8.65;;;2.15;;
27333;SDS011;14817;57.104;-2.094;2024-03-23T12:23:10;6.88;;;1.70;;
27333;SDS011;14817;57.104;-2.094;2024-03-23T12:25:39;6.38;;;1.38;;
27333;SDS011;14817;57.104;-2.094;2024-03-23T12:28:06;4.68;;;1.33;;
27333;SDS011;14817;57.104;-2.094;2024-03-23T12:30:32;4.35;;;1.50;;
27333;SDS011;14817;57.104;-2.094;2024-03-23T12:32:59;5.85;;;1.00;;
27333;SDS011;14817;57.104;-2.094;2024-03-23T12:35:25;3.15;;;0.80;;
27333;SDS011;14817;57.104;-2.094;2024-03-23T12:37:51;3.53;;;0.93;;
27333;SDS011;14817;57.104;-2.094;2024-03-23T12:40:16;3.17;;;1.10;;
27333;SDS011;14817;57.104;-2.094;2024-03-23T12:42:42;5.10;;;1.40;;
27333;SDS011;14817;57.104;-2.094;2024-03-23T12:45:08;7.90;;;1.00;;
27333;SDS011;14817;57.104;-2.094;2024-03-23T12:47:34;3.78;;;1.00;;
27333;SDS011;14817;57.104;-2.094;2024-03-23T12:50:00;10.35;;;1.80;;
27333;SDS011;14817;57.104;-2.094;2024-03-23T12:52:26;4.93;;;1.27;;
27333;SDS011;14817;57.104;-2.094;2024-03-23T12:54:55;4.63;;;1.27;;
27333;SDS011;14817;57.104;-2.094;2024-03-23T12:57:25;9.05;;;1.70;;
27333;SDS011;14817;57.104;-2.094;2024-03-23T12:59:51;8.23;;;1.85;;
27333;SDS011;14817;57.104;-2.094;2024-03-23T13:02:21;13.07;;;1.90;;
27333;SDS011;14817;57.104;-2.094;2024-03-23T13:04:51;8.73;;;1.95;;
27333;SDS011;14817;57.104;-2.094;2024-03-23T13:07:18;10.52;;;2.05;;
27333;SDS011;14817;57.104;-2.094;2024-03-23T13:09:45;8.65;;;2.40;;
27333;SDS011;14817;57.104;-2.094;2024-03-23T13:12:11;7.68;;;2.65;;
27333;SDS011;14817;57.104;-2.094;2024-03-23T13:14:40;12.80;;;2.45;;
27333;SDS011;14817;57.104;-2.094;2024-03-23T13:17:06;9.30;;;2.13;;
27333;SDS011;14817;57.104;-2.094;2024-03-23T13:19:32;9.45;;;1.70;;
27333;SDS011;14817;57.104;-2.094;2024-03-23T13:21:58;6.50;;;1.67;;
27333;SDS011;14817;57.104;-2.094;2024-03-23T13:24:25;7.07;;;2.47;;
27333;SDS011;14817;57.104;-2.094;2024-03-23T13:26:52;10.40;;;2.25;;
27333;SDS011;14817;57.104;-2.094;2024-03-23T13:29:19;8.50;;;1.55;;
27333;SDS011;14817;57.104;-2.094;2024-03-23T13:31:45;6.30;;;1.75;;
27333;SDS011;14817;57.104;-2.094;2024-03-23T13:34:12;10.27;;;2.20;;
27333;SDS011;14817;57.104;-2.094;2024-03-23T13:36:40;18.05;;;2.70;;
27333;SDS011;14817;57.104;-2.094;2024-03-23T13:39:07;7.75;;;1.63;;
27333;SDS011;14817;57.104;-2.094;2024-03-23T13:41:43;4.47;;;1.02;;
27333;SDS011;14817;57.104;-2.094;2024-03-23T13:44:13;8.07;;;1.48;;
27333;SDS011;14817;57.104;-2.094;2024-03-23T13:46:42;9.40;;;2.05;;
27333;SDS011;14817;57.104;-2.094;2024-03-23T13:49:24;5.97;;;1.45;;
27333;SDS011;14817;57.104;-2.094;2024-03-23T13:51:53;7.05;;;1.60;;
27333;SDS011;14817;57.104;-2.094;2024-03-23T13:54:20;12.75;;;1.65;;
27333;SDS011;14817;57.104;-2.094;2024-03-23T13:56:54;8.45;;;1.77;;
27333;SDS011;14817;57.104;-2.094;2024-03-23T13:59:21;12.38;;;1.95;;
27333;SDS011;14817;57.104;-2.094;2024-03-23T14:01:51;10.32;;;2.17;;
27333;SDS011;14817;57.104;-2.094;2024-03-23T14:04:17;5.47;;;2.03;;
27333;SDS011;14817;57.104;-2.094;2024-03-23T14:06:44;8.00;;;1.73;;
27333;SDS011;14817;57.104;-2.094;2024-03-23T14:09:14;6.30;;;1.35;;
27333;SDS011;14817;57.104;-2.094;2024-03-23T14:11:45;7.68;;;1.70;;
27333;SDS011;14817;57.104;-2.094;2024-03-23T14:14:11;8.13;;;1.83;;
27333;SDS011;14817;57.104;-2.094;2024-03-23T14:16:37;9.30;;;2.53;;
27333;SDS011;14817;57.104;-2.094;2024-03-23T14:19:03;8.57;;;1.40;;
27333;SDS011;14817;57.104;-2.094;2024-03-23T14:21:31;4.00;;;1.00;;
27333;SDS011;14817;57.104;-2.094;2024-03-23T14:23:57;5.45;;;1.23;;
27333;SDS011;14817;57.104;-2.094;2024-03-23T14:26:22;6.75;;;1.30;;
27333;SDS011;14817;57.104;-2.094;2024-03-23T14:28:49;5.95;;;1.00;;
27333;SDS011;14817;57.104;-2.094;2024-03-23T14:31:15;3.28;;;1.15;;
27333;SDS011;14817;57.104;-2.094;2024-03-23T14:33:41;7.80;;;1.20;;
27333;SDS011;14817;57.104;-2.094;2024-03-23T14:36:15;9.10;;;1.30;;
27333;SDS011;14817;57.104;-2.094;2024-03-23T14:38:41;7.72;;;1.55;;
27333;SDS011;14817;57.104;-2.094;2024-03-23T14:41:07;8.18;;;1.50;;
27333;SDS011;14817;57.104;-2.094;2024-03-23T14:43:33;8.57;;;1.23;;
27333;SDS011;14817;57.104;-2.094;2024-03-23T14:46:12;5.15;;;1.23;;
27333;SDS011;14817;57.104;-2.094;2024-03-23T14:48:40;8.87;;;1.70;;
27333;SDS011;14817;57.104;-2.094;2024-03-23T14:51:07;5.47;;;1.20;;
27333;SDS011;14817;57.104;-2.094;2024-03-23T14:53:44;5.47;;;1.25;;
27333;SDS011;14817;57.104;-2.094;2024-03-23T14:56:11;5.93;;;1.38;;
27333;SDS011;14817;57.104;-2.094;2024-03-23T14:58:40;7.32;;;1.20;;
27333;SDS011;14817;57.104;-2.094;2024-03-23T15:01:07;5.68;;;1.25;;
27333;SDS011;14817;57.104;-2.094;2024-03-23T15:03:40;6.22;;;1.30;;
27333;SDS011;14817;57.104;-2.094;2024-03-23T15:06:06;6.38;;;1.20;;
27333;SDS011;14817;57.104;-2.094;2024-03-23T15:08:34;6.72;;;1.20;;
27333;SDS011;14817;57.104;-2.094;2024-03-23T15:11:02;4.63;;;0.85;;
27333;SDS011;14817;57.104;-2.094;2024-03-23T15:13:34;5.95;;;1.48;;
27333;SDS011;14817;57.104;-2.094;2024-03-23T15:16:00;6.15;;;1.10;;
27333;SDS011;14817;57.104;-2.094;2024-03-23T15:18:26;4.90;;;0.90;;
27333;SDS011;14817;57.104;-2.094;2024-03-23T15:20:54;9.15;;;1.73;;
27333;SDS011;14817;57.104;-2.094;2024-03-23T15:23:20;4.57;;;1.30;;
27333;SDS011;14817;57.104;-2.094;2024-03-23T15:25:59;8.45;;;1.30;;
27333;SDS011;14817;57.104;-2.094;2024-03-23T15:28:26;11.15;;;1.35;;
27333;SDS011;14817;57.104;-2.094;2024-03-23T15:31:14;4.90;;;1.55;;
27333;SDS011;14817;57.104;-2.094;2024-03-23T15:33:39;10.55;;;1.50;;
27333;SDS011;14817;57.104;-2.094;2024-03-23T15:36:05;8.73;;;1.13;;
27333;SDS011;14817;57.104;-2.094;2024-03-23T15:38:32;3.58;;;1.27;;
27333;SDS011;14817;57.104;-2.094;2024-03-23T15:40:58;7.05;;;1.27;;
27333;SDS011;14817;57.104;-2.094;2024-03-23T15:43:24;9.00;;;1.58;;
27333;SDS011;14817;57.104;-2.094;2024-03-23T15:45:53;3.65;;;0.95;;
27333;SDS011;14817;57.104;-2.094;2024-03-23T15:48:20;4.03;;;0.85;;